Time;durP1;ratioP1;P1;durP2;ratioP2;P2;SDS_P1;SDS_P2;PMS_P1;PMS_P2;Temp;Humidity;BMP_temperature;BMP_pressure;BME280_temperature;BME280_humidity;BME280_pressure;Samples;Min_cycle;Max_cycle;Signal;HPM_P1;HPM_P2
2022/05/11 00:06:23;;;;;;;2.20;1.67;;;18.80;62.30;;;;;;20641989;28;20049;-74
2022/05/11 00:16:24;;;;;;;2.97;1.70;;;18.80;62.30;;;;;;20641402;28;20463;-76
2022/05/11 00:26:25;;;;;;;3.33;1.88;;;18.80;62.30;;;;;;20624584;28;20038;-75
2022/05/11 00:36:26;;;;;;;2.67;1.90;;;18.80;62.40;;;;;;20625434;28;20107;-74
2022/05/11 00:46:51;;;;;;;2.90;1.70;;;18.70;62.30;;;;;;20624138;28;20140;-75
2022/05/11 00:56:54;;;;;;;2.25;1.75;;;18.80;62.40;;;;;;20640001;28;20073;-75
2022/05/11 01:06:54;;;;;;;2.38;1.98;;;18.80;62.40;;;;;;20623664;28;20101;-75
2022/05/11 01:16:56;;;;;;;2.55;1.95;;;18.70;62.30;;;;;;20639312;28;20426;-75
2022/05/11 01:26:56;;;;;;;2.80;1.98;;;18.80;62.40;;;;;;20654214;28;20061;-74
2022/05/11 01:36:57;;;;;;;3.33;2.10;;;18.80;62.40;;;;;;20652034;28;20084;-75
2022/05/11 01:46:59;;;;;;;3.78;2.25;;;18.80;62.50;;;;;;20651064;28;20136;-75
2022/05/11 01:57:00;;;;;;;2.38;1.95;;;18.80;62.40;;;;;;20612475;28;20030;-75
2022/05/11 02:17:20;;;;;;;4.72;1.95;;;18.80;62.50;;;;;;20716587;28;20124;-75
2022/05/11 02:27:20;;;;;;;2.78;2.00;;;18.80;62.50;;;;;;20730246;28;20037;-74
2022/05/11 02:37:21;;;;;;;2.13;1.50;;;18.80;62.50;;;;;;20745939;28;20034;-75
2022/05/11 02:47:21;;;;;;;2.83;2.00;;;18.70;62.50;;;;;;20728323;28;20121;-75
2022/05/11 02:57:22;;;;;;;3.63;2.10;;;18.70;62.50;;;;;;20727180;28;20038;-75
2022/05/11 03:07:23;;;;;;;2.45;1.67;;;18.70;62.50;;;;;;20710853;28;20164;-75
2022/05/11 03:17:23;;;;;;;1.73;1.48;;;18.70;62.50;;;;;;20727150;28;20037;-74
2022/05/11 03:27:24;;;;;;;2.22;1.55;;;18.70;62.60;;;;;;20690814;28;20030;-76
2022/05/11 03:37:24;;;;;;;2.40;1.80;;;18.70;62.60;;;;;;20627989;28;20045;-76
2022/05/11 03:47:25;;;;;;;1.95;1.52;;;18.70;62.70;;;;;;20626020;28;20129;-76
2022/05/11 03:57:25;;;;;;;2.90;1.90;;;18.70;62.70;;;;;;20653898;28;20034;-76
2022/05/11 04:07:26;;;;;;;2.83;1.73;;;18.70;62.80;;;;;;20722072;28;20414;-75
2022/05/11 04:17:27;;;;;;;5.43;2.05;;;18.70;62.80;;;;;;20690200;28;20045;-76
2022/05/11 04:27:29;;;;;;;2.30;1.55;;;18.70;62.80;;;;;;20705759;28;20046;-75
2022/05/11 04:37:29;;;;;;;2.35;1.77;;;18.70;62.80;;;;;;20721974;28;20677;-75
2022/05/11 04:47:30;;;;;;;2.33;1.48;;;18.70;62.80;;;;;;20690443;28;20038;-80
2022/05/11 04:57:31;;;;;;;2.77;1.83;;;18.70;62.80;;;;;;20738854;28;20195;-76
2022/05/11 05:07:39;;;;;;;2.28;2.00;;;18.70;62.90;;;;;;20766434;28;20622;-76
2022/05/11 05:17:41;;;;;;;2.60;2.08;;;18.60;62.80;;;;;;20757250;28;20029;-78
2022/05/11 05:27:42;;;;;;;3.10;1.87;;;18.70;62.90;;;;;;20734917;28;20528;-76
2022/05/11 05:37:43;;;;;;;2.55;1.80;;;18.70;62.90;;;;;;20676806;28;20436;-73
2022/05/11 05:47:43;;;;;;;2.83;1.80;;;18.70;63.00;;;;;;20636078;28;20030;-75
2022/05/11 05:57:44;;;;;;;4.65;2.15;;;18.70;63.10;;;;;;20688777;28;20040;-76
2022/05/11 06:07:44;;;;;;;2.25;1.75;;;18.80;63.30;;;;;;20712649;28;20486;-74
2022/05/11 06:17:45;;;;;;;3.45;2.00;;;18.80;63.40;;;;;;20665585;28;20478;-74
2022/05/11 06:27:46;;;;;;;3.03;1.95;;;18.80;63.50;;;;;;20663099;28;20049;-75
2022/05/11 06:37:46;;;;;;;4.78;2.38;;;18.80;63.70;;;;;;20630458;28;20041;-74
2022/05/11 06:47:47;;;;;;;3.13;2.23;;;18.80;63.80;;;;;;20630448;28;20038;-74
2022/05/11 07:08:07;;;;;;;2.22;1.90;;;18.80;63.90;;;;;;21031758;23;20050;-80
2022/05/11 07:18:08;;;;;;;3.35;2.08;;;18.90;64.10;;;;;;20718094;28;20129;-79
2022/05/11 07:28:08;;;;;;;2.88;2.13;;;18.80;64.20;;;;;;20741014;28;20180;-79
2022/05/11 07:38:10;;;;;;;4.68;2.25;;;18.80;64.30;;;;;;20740647;28;20041;-79
2022/05/11 07:48:11;;;;;;;3.38;1.88;;;18.90;64.40;;;;;;20697572;28;20037;-79
2022/05/11 08:08:32;;;;;;;2.83;1.80;;;18.90;64.50;;;;;;20726385;28;20077;-80
2022/05/11 08:18:32;;;;;;;2.50;1.48;;;18.90;64.40;;;;;;20705697;28;20108;-79
2022/05/11 08:28:33;;;;;;;1.88;1.70;;;19.00;64.40;;;;;;20725880;28;20056;-79
2022/05/11 08:38:35;;;;;;;1.60;1.30;;;19.00;64.30;;;;;;20755579;28;20065;-79
2022/05/11 08:48:58;;;;;;;2.00;1.50;;;19.00;64.30;;;;;;20753321;28;20030;-79
2022/05/11 08:58:58;;;;;;;3.60;1.95;;;19.10;64.30;;;;;;20737066;28;20053;-80
2022/05/11 09:09:00;;;;;;;3.03;2.08;;;19.10;64.40;;;;;;20719474;28;20539;-78
2022/05/11 09:19:11;;;;;;;3.72;2.47;;;19.10;64.50;;;;;;20717740;28;20044;-79
2022/05/11 09:29:21;;;;;;;2.50;1.90;;;19.10;64.50;;;;;;20751686;28;20036;-79
2022/05/11 09:39:21;;;;;;;5.13;3.15;;;19.10;65.20;;;;;;20700237;28;20046;-79
2022/05/11 09:49:22;;;;;;;5.45;2.80;;;19.10;64.60;;;;;;20690161;28;20497;-79
2022/05/11 09:59:27;;;;;;;3.95;2.60;;;19.20;64.70;;;;;;20748301;28;20394;-79
2022/05/11 10:09:31;;;;;;;3.45;2.75;;;19.20;64.70;;;;;;20714685;28;20061;-77
2022/05/11 10:30:12;;;;;;;3.60;2.55;;;19.20;64.60;;;;;;20732031;28;20101;-79
2022/05/11 10:40:26;;;;;;;6.00;2.67;;;19.20;64.60;;;;;;20730409;28;20052;-77
2022/05/11 10:50:52;;;;;;;4.80;2.88;;;19.30;64.50;;;;;;20734551;28;20036;-79
2022/05/11 11:00:57;;;;;;;5.03;3.40;;;19.30;64.40;;;;;;20708094;28;20141;-79
2022/05/11 11:11:14;;;;;;;3.83;2.90;;;19.20;64.20;;;;;;20701680;28;20038;-77
2022/05/11 11:21:15;;;;;;;5.22;2.72;;;19.30;64.10;;;;;;20700658;28;20046;-82
2022/05/11 11:31:17;;;;;;;4.15;2.78;;;19.30;63.90;;;;;;20716264;28;20075;-80
2022/05/11 11:41:28;;;;;;;3.42;2.50;;;19.30;63.70;;;;;;20712622;28;20255;-80
2022/05/11 11:51:31;;;;;;;4.80;3.03;;;19.30;63.50;;;;;;20683092;28;20041;-74
2022/05/11 12:01:33;;;;;;;4.32;2.75;;;19.40;63.40;;;;;;20670802;28;20074;-74
2022/05/11 12:21:57;;;;;;;3.40;2.42;;;19.50;63.10;;;;;;20722698;28;20033;-77
2022/05/11 12:31:59;;;;;;;3.73;2.60;;;19.40;62.60;;;;;;20735473;28;20029;-77
2022/05/11 12:42:00;;;;;;;3.00;2.55;;;19.50;62.30;;;;;;20705307;28;20040;-78
2022/05/11 12:52:03;;;;;;;3.95;2.30;;;19.50;62.00;;;;;;20721044;28;20026;-79
2022/05/11 13:02:21;;;;;;;4.00;2.50;;;19.60;61.80;;;;;;20705881;28;20494;-78
2022/05/11 13:12:22;;;;;;;3.35;2.33;;;19.60;61.60;;;;;;20721313;28;20038;-79
2022/05/11 13:22:24;;;;;;;6.77;2.50;;;19.70;61.50;;;;;;20717862;28;20100;-76
2022/05/11 13:32:26;;;;;;;3.70;2.85;;;19.70;61.40;;;;;;20724608;28;20382;-89
2022/05/11 13:42:28;;;;;;;3.13;1.98;;;19.80;61.30;;;;;;20698476;28;20044;-74
2022/05/11 13:52:39;;;;;;;5.72;2.25;;;19.90;61.10;;;;;;20713443;28;20033;-73
2022/05/11 14:02:39;;;;;;;4.20;2.40;;;19.90;61.00;;;;;;20718898;28;20038;-75
2022/05/11 14:12:40;;;;;;;2.60;2.05;;;20.00;60.80;;;;;;20748765;28;20038;-77
2022/05/11 14:22:43;;;;;;;5.15;2.03;;;20.10;60.70;;;;;;20709734;28;20064;-77
2022/05/11 14:32:45;;;;;;;5.03;2.42;;;20.10;60.50;;;;;;20714118;28;20042;-79
2022/05/11 14:42:46;;;;;;;2.75;2.08;;;20.20;61.00;;;;;;20712736;28;20046;-77
2022/05/11 14:52:47;;;;;;;5.63;1.90;;;20.20;60.00;;;;;;20680179;28;20029;-77
2022/05/11 15:02:48;;;;;;;3.28;2.10;;;20.30;59.80;;;;;;20728093;28;20045;-76
2022/05/11 15:23:08;;;;;;;3.25;2.05;;;20.50;59.50;;;;;;20714851;28;20301;-72
2022/05/11 15:33:17;;;;;;;4.00;2.00;;;20.50;59.40;;;;;;20725997;28;20593;-73
2022/05/11 15:43:17;;;;;;;2.25;1.70;;;20.60;59.40;;;;;;20714214;28;20046;-73
2022/05/11 15:53:21;;;;;;;4.28;2.55;;;20.70;59.40;;;;;;20739887;28;20092;-74
2022/05/11 16:03:22;;;;;;;6.20;2.33;;;20.80;59.40;;;;;;20686174;28;20060;-74
2022/05/11 16:13:22;;;;;;;2.70;1.80;;;20.90;60.50;;;;;;20714504;28;20073;-75
2022/05/11 16:23:23;;;;;;;3.90;1.85;;;20.90;60.10;;;;;;20746582;28;20038;-78
2022/05/11 16:33:24;;;;;;;3.03;1.90;;;20.90;60.10;;;;;;20709299;28;20028;-77
2022/05/11 16:43:24;;;;;;;4.10;2.03;;;20.90;60.00;;;;;;20688584;28;20042;-76
2022/05/11 16:53:26;;;;;;;6.80;1.65;;;20.90;59.90;;;;;;20704597;28;20038;-82
2022/05/11 17:03:27;;;;;;;3.90;2.15;;;21.00;59.70;;;;;;20738049;28;20577;-80
2022/05/11 17:13:28;;;;;;;3.92;2.28;;;21.00;59.70;;;;;;20705844;28;20061;-80
2022/05/11 17:23:29;;;;;;;5.95;1.80;;;21.00;59.60;;;;;;20723740;28;20057;-83
2022/05/11 17:33:30;;;;;;;3.08;1.75;;;21.00;59.60;;;;;;20709889;28;20030;-81
2022/05/11 17:43:30;;;;;;;2.90;1.88;;;20.90;60.20;;;;;;20691744;28;20064;-86
2022/05/11 17:53:31;;;;;;;6.18;1.92;;;20.80;59.60;;;;;;20725957;28;20085;-85
2022/05/11 18:03:32;;;;;;;2.58;1.70;;;20.80;59.60;;;;;;20740595;28;20042;-85
2022/05/11 18:13:33;;;;;;;2.67;1.60;;;20.70;59.60;;;;;;20704791;28;20057;-86
2022/05/11 18:23:34;;;;;;;3.08;1.58;;;20.60;59.60;;;;;;20739191;28;20037;-86
2022/05/11 18:33:35;;;;;;;3.25;1.63;;;20.60;59.70;;;;;;20704820;28;20116;-85
2022/05/11 18:43:36;;;;;;;1.80;1.60;;;20.60;59.70;;;;;;20736016;28;20076;-85
2022/05/11 18:53:37;;;;;;;2.08;1.67;;;20.50;59.60;;;;;;20734491;28;20099;-84
2022/05/11 19:03:38;;;;;;;2.22;1.30;;;20.50;59.70;;;;;;20715927;28;20136;-85
2022/05/11 19:13:44;;;;;;;4.43;1.60;;;20.50;59.70;;;;;;20717774;28;20121;-85
2022/05/11 19:23:45;;;;;;;2.15;1.50;;;20.40;59.70;;;;;;20734240;28;20044;-85
2022/05/11 19:33:51;;;;;;;2.80;1.63;;;20.40;59.70;;;;;;20745237;28;20034;-81
2022/05/11 19:43:53;;;;;;;2.30;1.38;;;20.40;59.80;;;;;;20650347;28;20038;-81
2022/05/11 19:53:54;;;;;;;3.15;1.63;;;20.40;59.80;;;;;;20649532;28;20030;-82
2022/05/11 20:03:54;;;;;;;2.78;1.27;;;20.40;59.80;;;;;;20647915;28;20064;-80
2022/05/11 20:13:55;;;;;;;2.63;1.42;;;20.30;59.90;;;;;;20616820;28;20034;-81
2022/05/11 20:23:55;;;;;;;2.50;1.40;;;20.30;60.00;;;;;;20630924;28;20046;-82
2022/05/11 20:44:16;;;;;;;2.28;1.42;;;20.30;60.20;;;;;;20663776;28;20482;-81
2022/05/11 20:54:17;;;;;;;1.58;1.38;;;20.30;60.40;;;;;;20662323;28;20030;-82
2022/05/11 21:04:18;;;;;;;1.73;1.40;;;20.20;60.40;;;;;;20647163;28;20042;-81
2022/05/11 21:14:19;;;;;;;1.63;1.02;;;20.30;60.60;;;;;;20663734;28;20157;-81
2022/05/11 21:24:20;;;;;;;1.58;1.10;;;20.20;60.60;;;;;;20629568;28;20458;-82
2022/05/11 21:34:21;;;;;;;1.48;1.17;;;20.20;60.70;;;;;;20614813;28;20433;-79
2022/05/11 21:44:21;;;;;;;1.83;1.33;;;20.20;60.80;;;;;;20670272;28;20462;-79
2022/05/11 21:54:25;;;;;;;2.13;1.33;;;20.20;60.80;;;;;;20707701;28;20041;-80
2022/05/11 22:04:25;;;;;;;0.90;0.80;;;20.10;60.80;;;;;;20686011;28;20038;-79
2022/05/11 22:14:26;;;;;;;1.90;1.23;;;20.10;60.90;;;;;;20723672;28;20048;-79
2022/05/11 22:24:26;;;;;;;1.27;1.05;;;20.10;61.00;;;;;;20755054;28;20038;-80
2022/05/11 22:34:27;;;;;;;3.00;1.50;;;20.10;61.10;;;;;;20736958;28;20041;-81
2022/05/11 22:44:28;;;;;;;2.65;1.35;;;20.10;61.10;;;;;;20736274;28;20124;-80
2022/05/11 22:54:28;;;;;;;2.30;1.48;;;20.10;61.20;;;;;;20720069;28;20117;-79
2022/05/11 23:04:29;;;;;;;1.73;1.20;;;20.10;61.20;;;;;;20719480;28;20046;-79
2022/05/11 23:14:29;;;;;;;2.08;1.10;;;20.10;61.30;;;;;;20734131;28;20086;-80
2022/05/11 23:24:30;;;;;;;2.33;0.93;;;20.10;61.30;;;;;;20732943;28;20042;-79
2022/05/11 23:34:31;;;;;;;4.57;1.30;;;20.10;61.30;;;;;;20749251;28;20348;-82
2022/05/11 23:44:32;;;;;;;3.47;1.25;;;20.00;61.30;;;;;;20732354;28;20084;-80
2022/05/11 23:54:38;;;;;;;1.63;1.20;;;20.00;61.40;;;;;;20746869;28;20026;-80
